createdAt,value
2022-10-22T00:45:56.322Z,3.55
2022-10-22T00:53:28.404Z,3.67
2022-10-22T01:01:22.033Z,3.53
2022-10-22T01:40:39.499Z,3.37
2022-10-22T01:44:44.676Z,3.60
2022-10-22T01:56:57.487Z,3.10
2022-10-22T02:19:57.831Z,3.20
2022-10-22T02:24:08.904Z,3.87
2022-10-22T02:28:21.536Z,2.83
2022-10-22T02:53:15.149Z,4.15
2022-10-22T03:05:13.418Z,3.70
2022-10-22T03:28:43.489Z,5.10
2022-10-22T03:32:23.449Z,6.75
2022-10-22T03:52:24.624Z,9.82
2022-10-22T04:17:25.057Z,8.00
2022-10-22T04:28:43.212Z,8.52
2022-10-22T04:43:57.492Z,6.00
2022-10-22T04:52:12.388Z,12.50
2022-10-22T05:24:09.449Z,13.57
2022-10-22T05:28:22.951Z,16.55
2022-10-22T05:35:51.615Z,13.00
2022-10-22T06:32:49.786Z,6.93
2022-10-22T06:36:26.487Z,8.85
2022-10-22T06:40:39.210Z,10.10
2022-10-22T06:49:39.422Z,8.40
2022-10-22T06:52:53.657Z,7.28
2022-10-22T06:56:42.275Z,7.28
2022-10-22T07:01:29.092Z,6.50
2022-10-22T07:05:54.148Z,6.30
2022-10-22T07:22:34.162Z,4.78
2022-10-22T07:29:36.460Z,4.82
2022-10-22T07:33:21.655Z,5.15
2022-10-22T07:36:56.697Z,4.87
2022-10-22T07:40:52.900Z,4.18
2022-10-22T07:44:44.715Z,4.90
2022-10-22T07:49:20.450Z,4.28
2022-10-22T07:53:01.447Z,4.57
2022-10-22T07:57:02.129Z,5.55
2022-10-22T08:00:54.729Z,5.25
2022-10-22T08:04:35.194Z,5.57
2022-10-22T08:08:14.431Z,5.60
2022-10-22T08:11:43.683Z,5.75
2022-10-22T08:15:01.727Z,5.85
2022-10-22T08:18:25.996Z,6.57
2022-10-22T08:21:52.402Z,5.80
2022-10-22T08:25:44.267Z,5.35
2022-10-22T08:29:31.757Z,5.28
2022-10-22T08:33:01.725Z,5.45
2022-10-22T08:36:25.087Z,5.10
2022-10-22T08:39:50.283Z,5.53
2022-10-22T08:43:49.147Z,5.25
2022-10-22T08:47:53.368Z,4.80
2022-10-22T08:51:41.785Z,5.12
2022-10-22T08:55:26.152Z,5.30
2022-10-22T08:59:26.608Z,5.95
2022-10-22T09:03:35.246Z,5.47
2022-10-22T09:07:13.800Z,6.12
2022-10-22T09:11:06.761Z,5.72
2022-10-22T09:14:32.878Z,5.70
2022-10-22T09:19:16.944Z,6.28
2022-10-22T09:23:14.879Z,6.57
2022-10-22T09:27:07.593Z,5.72
2022-10-22T09:31:21.841Z,6.15
2022-10-22T09:35:37.712Z,6.87
2022-10-22T09:40:37.954Z,6.05
2022-10-22T09:45:52.177Z,6.28
2022-10-22T09:48:53.580Z,5.57
2022-10-22T09:53:03.256Z,6.00
2022-10-22T09:59:32.556Z,6.37
2022-10-22T10:02:47.487Z,6.22
2022-10-22T10:06:56.683Z,6.80
2022-10-22T10:10:44.865Z,6.97
2022-10-22T10:15:07.341Z,7.10
2022-10-22T10:19:25.625Z,5.87
2022-10-22T10:23:31.921Z,5.60
2022-10-22T10:27:54.072Z,6.12
2022-10-22T10:32:10.609Z,6.60
2022-10-22T10:35:44.039Z,6.37
2022-10-22T10:39:52.903Z,6.45
2022-10-22T10:44:12.192Z,6.15
2022-10-22T10:48:19.658Z,6.93
2022-10-22T10:52:21.321Z,6.80
2022-10-22T10:56:50.171Z,6.70
2022-10-22T11:00:57.702Z,6.57
2022-10-22T11:05:04.909Z,6.62
2022-10-22T11:08:55.799Z,6.45
2022-10-22T11:12:50.662Z,6.97
2022-10-22T11:16:48.190Z,6.62
2022-10-22T11:21:18.662Z,6.93
2022-10-22T11:25:16.604Z,6.53
2022-10-22T11:29:03.441Z,7.43
2022-10-22T11:32:55.639Z,6.40
2022-10-22T11:37:05.922Z,7.07
2022-10-22T11:56:02.924Z,7.85
2022-10-22T12:13:34.151Z,7.32
2022-10-22T12:17:16.334Z,6.93
2022-10-22T12:21:04.038Z,6.93
2022-10-22T12:25:25.050Z,6.78
2022-10-22T12:29:35.823Z,6.82
2022-10-22T12:33:37.153Z,7.18
2022-10-22T12:37:59.547Z,7.45
2022-10-22T12:42:09.758Z,8.00
2022-10-22T12:46:06.678Z,7.97
2022-10-22T12:50:33.624Z,7.55
2022-10-22T12:54:26.064Z,7.12
2022-10-22T12:58:38.660Z,7.07
2022-10-22T13:02:47.371Z,7.20
2022-10-22T13:06:38.325Z,7.00
2022-10-22T13:14:50.533Z,7.18
2022-10-22T13:18:54.976Z,7.30
2022-10-22T13:23:04.704Z,7.05
2022-10-22T13:27:12.183Z,6.68
2022-10-22T13:31:45.530Z,7.30
2022-10-22T13:35:41.332Z,6.85
2022-10-22T13:39:25.527Z,7.82
2022-10-22T13:43:29.034Z,7.03
2022-10-22T13:47:38.509Z,7.70
2022-10-22T13:51:47.203Z,7.60
2022-10-22T13:55:34.282Z,7.30
2022-10-22T13:59:12.660Z,7.72
2022-10-22T14:03:00.245Z,7.15
2022-10-22T14:07:37.125Z,6.37
2022-10-22T14:11:22.004Z,7.95
2022-10-22T14:15:34.870Z,7.72
2022-10-22T14:19:18.787Z,6.95
2022-10-22T14:23:28.874Z,7.55
2022-10-22T14:27:35.874Z,7.35
2022-10-22T14:31:44.519Z,7.60
2022-10-22T14:35:51.494Z,6.97
2022-10-22T14:40:02.899Z,6.80
2022-10-22T14:43:53.016Z,6.37
2022-10-22T14:47:55.275Z,7.05
2022-10-22T14:51:26.553Z,6.32
2022-10-22T14:55:12.083Z,7.12
2022-10-22T14:59:17.809Z,6.60
2022-10-22T15:03:04.547Z,6.90
2022-10-22T15:07:11.492Z,7.47
2022-10-22T15:11:02.816Z,6.70
2022-10-22T15:14:40.407Z,7.62
2022-10-22T15:18:24.762Z,7.60
2022-10-22T15:22:02.624Z,7.35
2022-10-22T15:29:31.676Z,6.62
2022-10-22T15:33:18.030Z,6.70
2022-10-22T15:37:12.806Z,6.20
2022-10-22T15:41:05.779Z,6.12
2022-10-22T15:44:35.443Z,5.55
2022-10-22T15:48:43.477Z,5.78
2022-10-22T15:52:58.805Z,5.60
2022-10-22T15:56:39.778Z,6.30
2022-10-22T16:00:49.221Z,6.87
2022-10-22T16:04:57.604Z,5.85
2022-10-22T16:08:40.381Z,6.62
2022-10-22T16:12:47.811Z,7.03
2022-10-22T16:16:23.661Z,8.63
2022-10-22T16:19:56.816Z,7.20
2022-10-22T16:23:35.627Z,7.35
2022-10-22T16:27:13.659Z,7.32
2022-10-22T16:30:54.940Z,7.45
2022-10-22T16:42:22.907Z,6.60
2022-10-22T16:46:07.532Z,7.55
2022-10-22T16:49:56.885Z,7.50
2022-10-22T16:53:35.899Z,8.13
2022-10-22T16:58:00.382Z,7.25
2022-10-22T17:21:30.005Z,8.52
2022-10-22T17:25:19.977Z,9.18
2022-10-22T17:29:01.968Z,8.40
2022-10-22T17:36:35.867Z,8.35
2022-10-22T17:40:12.402Z,10.60
2022-10-22T17:51:17.892Z,8.02
2022-10-22T17:55:02.608Z,8.77
2022-10-22T18:02:37.436Z,7.97
2022-10-22T18:06:20.923Z,8.55
2022-10-22T18:13:43.543Z,9.30
2022-10-22T18:17:29.529Z,9.55
2022-10-22T18:21:08.360Z,8.50
2022-10-22T18:24:39.927Z,9.15
2022-10-22T18:28:24.845Z,10.35
2022-10-22T18:36:00.428Z,10.38
2022-10-22T18:39:24.733Z,12.10
2022-10-22T18:43:10.043Z,11.70
2022-10-22T18:46:45.915Z,12.07
2022-10-22T18:50:21.006Z,10.23
2022-10-22T18:54:24.384Z,10.20
2022-10-22T19:01:35.755Z,11.18
2022-10-22T19:05:00.906Z,11.20
2022-10-22T19:08:45.783Z,11.85
2022-10-22T19:12:16.441Z,10.40
2022-10-22T19:20:21.560Z,9.75
2022-10-22T19:24:03.422Z,10.02
2022-10-22T19:27:42.029Z,10.15
2022-10-22T19:31:30.646Z,10.15
2022-10-22T19:35:19.559Z,9.85
2022-10-22T19:38:59.488Z,11.23
2022-10-22T19:46:40.718Z,10.93
2022-10-22T19:50:22.685Z,10.10
2022-10-22T20:02:03.813Z,9.32
2022-10-22T20:05:39.197Z,11.52
2022-10-22T20:09:16.567Z,12.57
2022-10-22T20:13:14.723Z,10.50
2022-10-22T20:17:01.087Z,8.90
2022-10-22T20:20:28.313Z,7.57
2022-10-22T20:24:27.049Z,8.50
2022-10-22T20:40:54.228Z,7.87
2022-10-22T20:48:40.517Z,7.97
2022-10-22T20:52:20.145Z,7.90
2022-10-22T20:56:04.529Z,9.88
2022-10-22T21:00:14.587Z,7.95
2022-10-22T21:03:51.963Z,8.70
